Hlavní strana
METAR-TAF:

METAR-TAF

Letiště :

Anapa, Rusko

zeměpisná šířka: 44-54N, zeměpisná délka: 037-19E, výška: 53 m

Aktuální stav počasí

Zpráva byla vytvořena před 26 minutami, v 13:30 UTC
Západojihozápadní vítr 6 kt
Teplota 10°C
Vlhkost vzduchu 76%
Tlak 1023 hPa
Viditelnost 10 km a více
Polojasno

METAR: URKA 181330Z 24003MPS 9999 SCT/// 10/06 Q1023 R22/010070 NOSIG RMK QFE762/1016

Čas: 16:56 (13:56 UTC)

Předpověď počasí

Zpráva byla vytvořena před 2 hodinami a 59 minutami, v 10:57 UTC
Předpověď platná od 18 v 12 UTC do 19 v 12 UTC
Jihojihozápadní vítr 6 kt s nárazy do 16 kt
Viditelnost 10 km a více
Polojasno ve výšce 3000 ft, Cumulonimbus.
Dočasný
od 18 v 12 UTC do 18 v 21 UTC
Viditelnost: 3100 m
Polojasno ve výšce 1100 ft
Oblačno až skoro zataženo ve výšce 2000 ft, Cumulonimbus.
bouřka, slabý déšť

TAF: URKA 181057Z 1812/1912 20003G08MPS 9999 SCT030CB TEMPO 1812/1821 3100 -TSRA SCT011 BKN020CB

Stav a předpovědi počasí z více než 4 000 letišť (zprávy METAR a TAF).

Červené a žluté tečky na mapě představují dostupné meteorologické stanice.

Když kurzor umístíte na tečku, zobrazí se název stanice.

Pak kliknutím zobrazíte stav a předpověď počasí.

Chcete-li změnit mapu, kliknutím na zelené tlačítko se znaménkem +mapu přiblížíte, kliknutím na zelené tlačítko se znaménkem – mapu oddálíte a kliknutím na zelené šipky přejdete na sousední mapy.


METAR-TAF: